Weather search by city/station or by Location Indicator (LI)

Please do one of the following:
a) Search the weather station by station, city or country name and click Search button
b) Enter the four-character Location Indicator (i.e. EFHK = Helsinki) and click Submit button

a) Search the station:   

b) Location Indicator:  

The ICAO Location Indicator code is explained here.

METAR = EFHK 202350Z 20006KT 9999 FEW015 15/14 Q1020 NOSIG

STATIONEFHK
NAMEHelsinki/Vantaa Arpt, --, FI
OBSERVED21.08.2019 02:50 (20.08.2019 23:50 UTC), 5 min ago
TEMPERATURE15.0°C ( 59°F)
WINDCHILL14.5 °C (58 °F)
WINDSSW (200 degrees) at 7 MPH (6 knots; 3.1 m/s)
HUMIDITY94%
PRESSURE1020 hPa